createdAt,value
2023-05-10T00:00:02.538Z,0
2023-05-10T00:05:02.558Z,0
2023-05-10T00:10:02.644Z,0
2023-05-10T00:15:02.535Z,0
2023-05-10T00:20:02.552Z,0
2023-05-10T00:25:02.600Z,0
2023-05-10T00:30:02.564Z,0
2023-05-10T00:35:02.562Z,0
2023-05-10T00:40:02.617Z,0
2023-05-10T00:45:02.579Z,0
2023-05-10T00:50:02.596Z,0
2023-05-10T00:55:02.591Z,0
2023-05-10T01:00:02.535Z,0
2023-05-10T01:05:02.650Z,0
2023-05-10T01:10:00.870Z,0
2023-05-10T01:15:00.874Z,0
2023-05-10T01:20:00.821Z,0
2023-05-10T01:25:00.796Z,0
2023-05-10T01:30:13.935Z,0
2023-05-10T01:35:00.846Z,0
2023-05-10T01:40:00.875Z,0
2023-05-10T01:45:00.893Z,0
2023-05-10T01:50:00.844Z,0
2023-05-10T01:55:00.846Z,0
2023-05-10T02:00:00.850Z,0
2023-05-10T02:05:00.889Z,0
2023-05-10T02:10:00.854Z,0
2023-05-10T02:15:01.014Z,0
2023-05-10T02:20:00.928Z,0
2023-05-10T02:25:00.965Z,0
2023-05-10T02:30:00.925Z,0
2023-05-10T02:35:00.910Z,0
2023-05-10T02:40:00.870Z,0
2023-05-10T02:45:00.923Z,0
2023-05-10T02:50:00.955Z,0
2023-05-10T02:55:00.936Z,0
2023-05-10T03:00:01.025Z,0
2023-05-10T03:05:00.947Z,0
2023-05-10T03:10:00.914Z,0
2023-05-10T03:15:00.951Z,0
2023-05-10T03:20:00.976Z,0
2023-05-10T03:25:00.933Z,0.4007089947089947
2023-05-10T03:30:00.932Z,0.40586243386243387
2023-05-10T03:35:01.030Z,0.5701798941798942
2023-05-10T03:40:00.954Z,0.7406984126984126
2023-05-10T03:45:00.977Z,0.9764126984126984
2023-05-10T03:50:00.970Z,1.2154603174603176
2023-05-10T03:55:00.994Z,1.438793650793651
2023-05-10T04:00:00.990Z,1.6534603174603175
2023-05-10T04:05:00.976Z,1.8828888888888888
2023-05-10T04:10:00.976Z,2.0747724867724866
2023-05-10T04:15:01.051Z,2.273904761904762
2023-05-10T04:20:00.975Z,2.4753862433862435
2023-05-10T04:25:01.066Z,2.679883597883598
2023-05-10T04:30:01.092Z,2.8527195767195765
2023-05-10T04:35:01.083Z,3.028825396825397
2023-05-10T04:40:01.122Z,3.1842645502645506
2023-05-10T04:45:00.972Z,3.3645608465608468
2023-05-10T04:50:01.017Z,3.5296296296296297
2023-05-10T04:55:01.029Z,3.6798730158730155
2023-05-10T05:00:01.051Z,3.8174708994708997
2023-05-10T05:05:01.005Z,3.997925925925926
2023-05-10T05:10:01.188Z,4.111015873015873
2023-05-10T05:15:01.087Z,4.263185185185185
2023-05-10T05:20:01.078Z,4.512751322751322
2023-05-10T05:25:01.122Z,4.9348253968253974
2023-05-10T05:30:01.074Z,5.502052910052909
2023-05-10T05:35:01.069Z,6.209259259259259
2023-05-10T05:40:01.020Z,7.07794708994709
2023-05-10T05:45:01.065Z,8.110084656084657
2023-05-10T05:50:01.125Z,9.35194708994709
2023-05-10T05:55:01.152Z,10.71741798941799
2023-05-10T06:00:01.139Z,12.196179894179894
2023-05-10T06:05:01.130Z,13.89536507936508
2023-05-10T06:10:01.126Z,15.61847619047619
2023-05-10T06:15:01.093Z,17.301756613756613
2023-05-10T06:20:01.142Z,18.98009523809524
2023-05-10T06:25:01.096Z,20.833111111111112
2023-05-10T06:35:01.077Z,24.67446560846561
2023-05-10T06:40:01.135Z,26.892730158730156
2023-05-10T06:45:01.159Z,29.20900529100529
2023-05-10T06:50:01.180Z,31.29067724867725
2023-05-10T06:55:01.155Z,33.21171428571429
2023-05-10T07:00:01.225Z,35.051280423280424
2023-05-10T07:05:03.053Z,36.850931216931215
2023-05-10T07:10:01.141Z,38.700169312169315
2023-05-10T07:15:01.213Z,40.51331216931217
2023-05-10T07:20:01.284Z,42.412973544973546
2023-05-10T07:25:01.135Z,44.089703703703705
2023-05-10T07:30:01.223Z,45.56880423280424
2023-05-10T07:35:01.249Z,47.43830687830688
2023-05-10T07:40:01.169Z,49.1067619047619
2023-05-10T07:45:01.140Z,50.715280423280426
2023-05-10T07:50:01.152Z,52.22879365079365
2023-05-10T07:55:01.153Z,53.86512169312169
2023-05-10T08:00:01.200Z,55.19086772486773
2023-05-10T08:05:01.183Z,56.66820105820106
2023-05-10T08:10:01.245Z,58.345111111111116
2023-05-10T08:15:01.352Z,59.694232804232804
2023-05-10T08:20:01.228Z,60.87427513227512
2023-05-10T08:25:01.186Z,62.18673015873015
2023-05-10T08:30:01.285Z,63.24634920634921
2023-05-10T08:35:01.210Z,64.21028571428572
2023-05-10T08:40:01.237Z,65.42524867724867
2023-05-10T08:45:01.238Z,66.65208465608467
2023-05-10T08:50:01.240Z,67.4927724867725
2023-05-10T08:55:01.289Z,68.89795767195767
2023-05-10T09:00:01.203Z,70.12756613756615
2023-05-10T09:05:01.320Z,71.16260317460318
2023-05-10T09:10:01.237Z,72.1542962962963
2023-05-10T09:15:01.362Z,73.36575661375662
2023-05-10T09:20:01.252Z,74.57592592592593
2023-05-10T09:25:01.250Z,75.44222222222223
2023-05-10T09:30:01.240Z,76.20632804232805
2023-05-10T09:35:01.244Z,77.17507936507937
2023-05-10T09:40:01.293Z,78.05300529100529
2023-05-10T09:45:01.421Z,78.4135873015873
2023-05-10T09:50:01.316Z,78.99728042328043
2023-05-10T09:55:01.276Z,79.80884656084658
2023-05-10T10:00:01.380Z,81.11039153439154
2023-05-10T10:05:01.334Z,81.88554497354498
2023-05-10T10:10:01.290Z,82.18073015873016
2023-05-10T10:15:01.355Z,83.33323809523809
2023-05-10T10:20:01.398Z,83.91784126984126
2023-05-10T10:25:01.332Z,84.07795767195768
2023-05-10T10:30:01.368Z,84.69974603174603
2023-05-10T10:35:01.445Z,85.3418201058201
2023-05-10T10:40:01.490Z,85.63616931216932
2023-05-10T10:45:01.507Z,85.83713227513228
2023-05-10T10:50:01.530Z,86.13133333333334
2023-05-10T10:55:01.463Z,86.05856084656085
2023-05-10T11:00:01.318Z,86.39694179894181
2023-05-10T11:05:01.426Z,87.11475132275133
2023-05-10T11:10:01.395Z,87.38691005291005
2023-05-10T11:15:01.411Z,87.30702645502647
2023-05-10T11:20:01.405Z,87.58937566137566
2023-05-10T11:25:01.341Z,88.0805291005291
2023-05-10T11:30:03.207Z,87.99769312169313
2023-05-10T11:35:01.338Z,87.74553439153439
2023-05-10T11:40:01.407Z,87.47692063492063
2023-05-10T11:45:01.419Z,87.43101587301587
2023-05-10T11:50:01.487Z,87.75337566137566
2023-05-10T11:55:01.543Z,87.9977037037037
2023-05-10T12:00:01.476Z,87.79517460317462
2023-05-10T12:05:01.629Z,87.95908994708995
2023-05-10T12:15:01.441Z,86.60641269841271
2023-05-10T12:20:01.423Z,86.05603174603175
2023-05-10T12:25:01.403Z,85.82784126984126
2023-05-10T12:30:01.406Z,85.60962962962964
2023-05-10T12:35:01.401Z,85.65856084656085
2023-05-10T12:40:01.391Z,84.63831746031745
2023-05-10T12:45:01.417Z,84.43668783068783
2023-05-10T12:50:01.509Z,83.78476190476191
2023-05-10T12:55:01.646Z,83.37795767195769
2023-05-10T13:00:01.447Z,82.87501587301588
2023-05-10T13:05:01.614Z,82.43891005291005
2023-05-10T13:10:01.564Z,81.47612698412699
2023-05-10T13:15:01.624Z,80.84967195767196
2023-05-10T13:20:01.469Z,80.28457142857143
2023-05-10T13:25:01.466Z,79.65731216931216
2023-05-10T13:30:01.505Z,78.94393650793651
2023-05-10T13:35:01.467Z,78.08497354497355
2023-05-10T13:40:01.460Z,77.29242328042328
2023-05-10T13:45:01.635Z,76.17754497354497
2023-05-10T13:50:01.530Z,75.48919576719577
2023-05-10T13:55:01.505Z,74.58146031746033
2023-05-10T14:00:01.613Z,73.79721693121694
2023-05-10T14:05:01.644Z,72.67774603174604
2023-05-10T14:10:01.463Z,71.65019047619047
2023-05-10T14:15:01.516Z,70.46542857142856
2023-05-10T14:20:01.550Z,69.36196825396826
2023-05-10T14:25:01.466Z,68.26263492063492
2023-05-10T14:30:01.519Z,66.94112169312169
2023-05-10T14:35:01.564Z,65.55219047619048
2023-05-10T14:40:01.521Z,64.2180634920635
2023-05-10T14:45:01.646Z,63.00375661375662
2023-05-10T14:50:01.677Z,62.06038095238095
2023-05-10T14:55:01.713Z,60.59792592592592
2023-05-10T15:00:01.534Z,59.04562962962962
2023-05-10T15:05:01.543Z,57.5835343915344
2023-05-10T15:10:01.583Z,56.103153439153445
2023-05-10T15:15:01.630Z,54.529269841269844
2023-05-10T15:20:01.568Z,53.0334708994709
2023-05-10T15:25:01.582Z,51.48249735449736
2023-05-10T15:30:01.639Z,49.907555555555554
2023-05-10T15:35:01.763Z,48.39186243386243
2023-05-10T15:40:01.613Z,46.723291005291
2023-05-10T15:45:01.620Z,44.97882539682539
2023-05-10T15:50:01.665Z,43.289693121693126
2023-05-10T15:55:01.617Z,41.47523809523809
2023-05-10T16:00:01.717Z,39.735449735449734
2023-05-10T16:05:01.654Z,37.85696296296297
2023-05-10T16:10:01.682Z,36.013925925925925
2023-05-10T16:15:01.712Z,34.27910052910053
2023-05-10T16:20:01.567Z,32.4237671957672
2023-05-10T16:25:01.560Z,30.71631746031746
2023-05-10T16:30:01.700Z,28.87131216931217
2023-05-10T16:35:01.618Z,26.96746031746032
2023-05-10T16:40:01.756Z,25.11425396825397
2023-05-10T16:45:01.638Z,23.332349206349207
2023-05-10T16:50:01.740Z,21.57274074074074
2023-05-10T16:55:01.746Z,19.751724867724867
2023-05-10T17:00:01.726Z,17.915142857142857
2023-05-10T17:05:01.762Z,16.118370370370368
2023-05-10T17:10:01.618Z,14.425968253968255
2023-05-10T17:15:01.728Z,12.731386243386245
2023-05-10T17:20:01.636Z,11.07337566137566
2023-05-10T17:25:01.690Z,9.519216931216931
2023-05-10T17:30:01.779Z,8.143968253968255
2023-05-10T17:35:01.847Z,6.887227513227513
2023-05-10T17:40:01.776Z,5.7128359788359795
2023-05-10T17:45:01.683Z,4.502740740740741
2023-05-10T17:50:01.686Z,3.5085185185185184
2023-05-10T17:55:01.697Z,2.73405291005291
2023-05-10T18:00:01.674Z,2.1941904761904762
2023-05-10T18:05:01.783Z,1.809957671957672
2023-05-10T18:10:01.770Z,1.4481798941798942
2023-05-10T18:15:01.768Z,1.195693121693122
2023-05-10T18:20:01.925Z,0.9725291005291005
2023-05-10T18:25:01.892Z,0.7627830687830688
2023-05-10T18:30:01.962Z,0.5455978835978836
2023-05-10T18:35:01.738Z,0.36792592592592593
2023-05-10T18:40:01.766Z,0.43032804232804234
2023-05-10T18:45:01.790Z,0.3078412698412698
2023-05-10T18:50:01.756Z,0.24551322751322752
2023-05-10T18:55:01.767Z,0.11523809523809525
2023-05-10T19:00:01.736Z,0
2023-05-10T19:05:01.790Z,0
2023-05-10T19:10:01.777Z,0
2023-05-10T19:15:01.795Z,0
2023-05-10T19:20:02.334Z,0
2023-05-10T19:25:01.937Z,0
2023-05-10T19:30:01.927Z,0
2023-05-10T19:35:02.033Z,0
2023-05-10T19:40:01.779Z,0
2023-05-10T19:45:01.813Z,0
2023-05-10T19:50:01.941Z,0
2023-05-10T19:55:01.788Z,0
2023-05-10T20:00:01.768Z,0
2023-05-10T20:05:01.797Z,0
2023-05-10T20:10:01.881Z,0
2023-05-10T20:15:01.829Z,0
2023-05-10T20:20:01.800Z,0
2023-05-10T20:25:01.806Z,0
2023-05-10T20:30:01.879Z,0
2023-05-10T20:35:01.984Z,0
2023-05-10T20:40:01.960Z,0
2023-05-10T20:45:02.060Z,0
2023-05-10T20:50:01.787Z,0
2023-05-10T20:55:01.854Z,0
2023-05-10T21:00:01.845Z,0
2023-05-10T21:05:01.869Z,0
2023-05-10T21:10:01.898Z,0
2023-05-10T21:15:01.853Z,0
2023-05-10T21:20:01.996Z,0
2023-05-10T21:25:01.952Z,0
2023-05-10T21:30:01.834Z,0
2023-05-10T21:35:01.866Z,0
2023-05-10T21:40:01.842Z,0
2023-05-10T21:45:01.977Z,0
2023-05-10T21:50:02.090Z,0
2023-05-10T21:55:02.058Z,0
2023-05-10T22:00:02.009Z,0
2023-05-10T22:05:01.851Z,0
2023-05-10T22:10:02.216Z,0
2023-05-10T22:20:01.880Z,0
2023-05-10T22:25:01.952Z,0
2023-05-10T22:30:01.930Z,0
2023-05-10T22:35:01.914Z,0
2023-05-10T22:40:01.920Z,0
2023-05-10T22:45:01.972Z,0
2023-05-10T22:50:01.923Z,0
2023-05-10T22:55:01.915Z,0
2023-05-10T23:00:02.028Z,0
2023-05-10T23:05:02.058Z,0
2023-05-10T23:10:02.064Z,0
2023-05-10T23:15:02.179Z,0
2023-05-10T23:20:02.213Z,0
2023-05-10T23:25:02.013Z,0
2023-05-10T23:30:01.956Z,0
2023-05-10T23:35:01.955Z,0
2023-05-10T23:40:01.974Z,0
2023-05-10T23:45:02.053Z,0
2023-05-10T23:50:01.984Z,0
2023-05-10T23:55:01.964Z,0
